createdAt,value
2023-04-10T00:00:51.097Z,80.86
2023-04-10T00:01:51.142Z,80.96
2023-04-10T00:02:51.273Z,80.55
2023-04-10T00:03:51.240Z,80.76
2023-04-10T00:04:51.162Z,80.76
2023-04-10T00:05:51.049Z,80.76
2023-04-10T00:06:51.029Z,80.86
2023-04-10T00:07:51.023Z,80.86
2023-04-10T00:08:51.020Z,80.96
2023-04-10T00:09:51.006Z,80.86
2023-04-10T00:10:50.985Z,80.76
2023-04-10T00:11:50.972Z,80.55
2023-04-10T00:12:50.967Z,80.62
2023-04-10T00:13:51.073Z,80.55
2023-04-10T00:14:50.949Z,80.35
2023-04-10T00:15:50.964Z,80.55
2023-04-10T00:16:50.976Z,80.65
2023-04-10T00:17:50.964Z,80.35
2023-04-10T00:18:50.914Z,80.45
2023-04-10T00:19:50.887Z,80.45
2023-04-10T00:20:50.912Z,80.55
2023-04-10T00:21:50.866Z,80.28
2023-04-10T00:22:50.897Z,80.65
2023-04-10T00:23:50.877Z,80.65
2023-04-10T00:24:50.831Z,80.55
2023-04-10T00:25:50.821Z,80.90
2023-04-10T00:26:50.821Z,80.69
2023-04-10T00:27:50.803Z,81.20
2023-04-10T00:28:50.820Z,81.30
2023-04-10T00:29:50.790Z,81.55
2023-04-10T00:30:50.767Z,82.27
2023-04-10T00:31:50.814Z,82.06
2023-04-10T00:32:50.783Z,82.89
2023-04-10T00:33:50.793Z,82.82
2023-04-10T00:34:50.723Z,83.03
2023-04-10T00:35:50.738Z,82.41
2023-04-10T00:36:50.700Z,81.83
2023-04-10T00:37:50.692Z,81.01
2023-04-10T00:38:50.707Z,82.24
2023-04-10T00:39:50.678Z,83.06
2023-04-10T00:40:50.671Z,82.65
2023-04-10T00:41:50.649Z,81.69
2023-04-10T00:42:50.640Z,81.01
2023-04-10T00:43:50.657Z,81.52
2023-04-10T00:44:50.631Z,81.32
2023-04-10T00:45:50.948Z,81.21
2023-04-10T00:46:50.604Z,80.80
2023-04-10T00:47:50.637Z,80.91
2023-04-10T00:48:50.587Z,79.88
2023-04-10T00:49:50.570Z,79.88
2023-04-10T00:50:50.563Z,80.08
2023-04-10T00:51:50.540Z,81.01
2023-04-10T00:52:50.531Z,81.01
2023-04-10T00:53:50.575Z,81.05
2023-04-10T00:54:50.509Z,80.70
2023-04-10T00:55:50.508Z,80.84
2023-04-10T00:56:50.486Z,80.74
2023-04-10T00:57:50.480Z,80.43
2023-04-10T00:58:50.477Z,80.74
2023-04-10T00:59:50.455Z,80.74
2023-04-10T01:00:50.441Z,80.94
2023-04-10T01:01:50.646Z,80.84
2023-04-10T01:02:50.623Z,80.94
2023-04-10T01:03:50.523Z,80.84
2023-04-10T01:04:50.397Z,80.63
2023-04-10T01:05:50.399Z,80.94
2023-04-10T01:06:50.376Z,80.02
2023-04-10T01:07:50.376Z,80.05
2023-04-10T01:08:50.380Z,80.63
2023-04-10T01:09:50.371Z,80.43
2023-04-10T01:10:50.338Z,80.94
2023-04-10T01:11:50.324Z,81.05
2023-04-10T01:12:50.310Z,80.94
2023-04-10T01:13:50.343Z,81.15
2023-04-10T01:14:50.288Z,81.15
2023-04-10T01:15:50.278Z,81.35
2023-04-10T01:16:50.277Z,81.67
2023-04-10T01:17:50.337Z,81.76
2023-04-10T01:18:50.244Z,81.67
2023-04-10T01:19:50.256Z,81.81
2023-04-10T01:20:50.226Z,81.67
2023-04-10T01:21:50.215Z,82.59
2023-04-10T01:22:50.239Z,82.32
2023-04-10T01:23:50.200Z,82.73
2023-04-10T01:24:50.184Z,83.25
2023-04-10T01:25:50.170Z,83.65
2023-04-10T01:26:50.158Z,84.00
2023-04-10T01:27:50.204Z,83.76
2023-04-10T01:28:50.137Z,84.17
2023-04-10T01:29:50.132Z,84.38
2023-04-10T01:30:50.156Z,84.07
2023-04-10T01:31:50.106Z,83.45
2023-04-10T01:32:50.183Z,84.07
2023-04-10T01:33:50.104Z,83.97
2023-04-10T01:34:50.073Z,84.17
2023-04-10T01:35:50.084Z,83.76
2023-04-10T01:36:50.076Z,83.97
2023-04-10T01:37:50.076Z,83.51
2023-04-10T01:38:50.043Z,83.45
2023-04-10T01:39:50.021Z,83.55
2023-04-10T01:40:50.033Z,83.55
2023-04-10T01:41:50.005Z,83.55
2023-04-10T01:42:50.002Z,83.55
2023-04-10T01:43:49.995Z,83.41
2023-04-10T01:44:50.000Z,83.55
2023-04-10T01:45:49.962Z,83.51
2023-04-10T01:46:50.130Z,83.51
2023-04-10T01:47:50.081Z,83.62
2023-04-10T01:48:49.925Z,83.41
2023-04-10T01:49:49.921Z,83.41
2023-04-10T01:50:49.909Z,83.51
2023-04-10T01:51:49.919Z,83.31
2023-04-10T01:52:49.910Z,83.20
2023-04-10T01:53:49.876Z,83.20
2023-04-10T01:54:49.865Z,82.69
2023-04-10T01:55:49.855Z,82.18
2023-04-10T01:56:49.881Z,82.63
2023-04-10T01:57:49.846Z,82.11
2023-04-10T01:58:49.849Z,82.21
2023-04-10T01:59:49.811Z,82.32
2023-04-10T02:00:49.801Z,82.11
2023-04-10T02:01:49.957Z,82.42
2023-04-10T02:02:49.981Z,82.42
2023-04-10T02:03:49.824Z,82.42
2023-04-10T02:04:49.777Z,82.21
2023-04-10T02:05:49.748Z,82.56
2023-04-10T02:06:49.757Z,82.32
2023-04-10T02:07:49.797Z,82.35
2023-04-10T02:08:49.741Z,82.11
2023-04-10T02:09:49.704Z,82.15
2023-04-10T02:10:49.695Z,82.35
2023-04-10T02:11:49.754Z,82.56
2023-04-10T02:12:49.789Z,82.35
2023-04-10T02:13:49.661Z,82.05
2023-04-10T02:14:49.651Z,82.67
2023-04-10T02:15:49.652Z,82.77
2023-04-10T02:16:49.628Z,82.56
2023-04-10T02:17:49.778Z,82.25
2023-04-10T02:18:49.615Z,82.05
2023-04-10T02:19:49.614Z,82.15
2023-04-10T02:20:49.593Z,82.05
2023-04-10T02:21:49.590Z,81.84
2023-04-10T02:22:49.604Z,81.95
2023-04-10T02:23:49.586Z,81.63
2023-04-10T02:24:49.551Z,81.33
2023-04-10T02:25:49.535Z,81.23
2023-04-10T02:26:49.539Z,80.91
2023-04-10T02:27:49.536Z,80.81
2023-04-10T02:28:49.499Z,81.53
2023-04-10T02:29:49.496Z,81.33
2023-04-10T02:30:49.499Z,81.53
2023-04-10T02:31:49.474Z,81.84
2023-04-10T02:32:49.553Z,82.15
2023-04-10T02:33:49.447Z,82.25
2023-04-10T02:34:49.437Z,81.95
2023-04-10T02:35:49.430Z,82.46
2023-04-10T02:36:49.420Z,82.46
2023-04-10T02:37:49.453Z,82.05
2023-04-10T02:38:49.394Z,82.25
2023-04-10T02:39:49.405Z,82.56
2023-04-10T02:40:49.414Z,81.74
2023-04-10T02:41:49.364Z,82.05
2023-04-10T02:42:49.363Z,81.95
2023-04-10T02:43:49.350Z,81.84
2023-04-10T02:44:49.339Z,81.33
2023-04-10T02:45:49.321Z,81.12
2023-04-10T02:46:49.392Z,80.71
2023-04-10T02:47:49.337Z,80.91
2023-04-10T02:48:49.289Z,80.81
2023-04-10T02:49:49.284Z,80.19
2023-04-10T02:50:49.293Z,79.61
2023-04-10T02:51:49.299Z,79.88
2023-04-10T02:52:49.256Z,79.61
2023-04-10T02:53:49.238Z,79.30
2023-04-10T02:54:49.244Z,79.41
2023-04-10T02:55:49.263Z,79.41
2023-04-10T02:56:49.217Z,78.89
2023-04-10T02:57:49.205Z,79.24
2023-04-10T02:58:49.179Z,79.03
2023-04-10T02:59:49.172Z,78.31
2023-04-10T03:00:49.179Z,77.80
2023-04-10T03:01:49.240Z,77.48
2023-04-10T03:02:49.441Z,77.59
2023-04-10T03:03:49.180Z,77.38
2023-04-10T03:04:49.162Z,77.38
2023-04-10T03:05:49.112Z,77.59
2023-04-10T03:06:49.109Z,77.90
2023-04-10T03:07:49.101Z,77.59
2023-04-10T03:08:49.106Z,77.69
2023-04-10T03:09:49.063Z,77.59
2023-04-10T03:10:49.050Z,76.87
2023-04-10T03:11:49.069Z,77.18
2023-04-10T03:12:49.048Z,76.90
2023-04-10T03:13:49.024Z,77.69
2023-04-10T03:14:49.015Z,77.83
2023-04-10T03:15:49.026Z,77.73
2023-04-10T03:16:48.986Z,77.62
2023-04-10T03:17:49.026Z,77.73
2023-04-10T03:18:48.977Z,77.73
2023-04-10T03:19:48.964Z,77.62
2023-04-10T03:20:48.952Z,77.73
2023-04-10T03:21:48.960Z,77.94
2023-04-10T03:22:48.923Z,77.52
2023-04-10T03:23:48.916Z,77.76
2023-04-10T03:24:48.912Z,78.08
2023-04-10T03:25:48.893Z,78.08
2023-04-10T03:26:48.920Z,77.45
2023-04-10T03:27:48.916Z,77.76
2023-04-10T03:28:48.880Z,78.18
2023-04-10T03:29:48.860Z,79.00
2023-04-10T03:30:48.851Z,79.41
2023-04-10T03:31:48.908Z,79.52
2023-04-10T03:32:48.819Z,79.21
2023-04-10T03:33:48.873Z,79.11
2023-04-10T03:34:48.811Z,79.31
2023-04-10T03:35:48.823Z,79.62
2023-04-10T03:36:48.777Z,79.62
2023-04-10T03:37:48.792Z,79.31
2023-04-10T03:38:48.781Z,79.76
2023-04-10T03:39:48.743Z,79.72
2023-04-10T03:40:48.735Z,79.41
2023-04-10T03:41:48.742Z,79.93
2023-04-10T03:42:48.709Z,79.83
2023-04-10T03:43:48.722Z,80.04
2023-04-10T03:44:48.697Z,80.04
2023-04-10T03:45:48.689Z,80.34
2023-04-10T03:46:48.726Z,80.44
2023-04-10T03:47:48.724Z,79.93
2023-04-10T03:48:48.646Z,80.14
2023-04-10T03:49:48.640Z,79.45
2023-04-10T03:50:48.639Z,79.72
2023-04-10T03:51:48.617Z,79.93
2023-04-10T03:52:48.602Z,79.52
2023-04-10T03:53:48.606Z,79.66
2023-04-10T03:54:48.583Z,79.52
2023-04-10T03:55:48.638Z,80.04
2023-04-10T03:56:48.565Z,80.14
2023-04-10T03:57:48.570Z,79.52
2023-04-10T03:58:48.555Z,79.62
2023-04-10T03:59:48.564Z,79.31
2023-04-10T04:00:48.532Z,79.86
2023-04-10T04:01:48.554Z,79.86
2023-04-10T04:02:48.717Z,79.76
2023-04-10T04:03:48.645Z,80.38
2023-04-10T04:04:48.623Z,79.97
2023-04-10T04:05:48.468Z,79.86
2023-04-10T04:06:48.463Z,79.83
2023-04-10T04:07:48.480Z,79.55
2023-04-10T04:08:48.449Z,79.45
2023-04-10T04:09:48.431Z,79.55
2023-04-10T04:10:48.415Z,80.00
2023-04-10T04:11:48.399Z,80.00
2023-04-10T04:12:48.389Z,80.21
2023-04-10T04:13:48.400Z,80.00
2023-04-10T04:14:48.366Z,80.32
2023-04-10T04:15:48.378Z,80.25
2023-04-10T04:16:48.426Z,81.14
2023-04-10T04:17:48.421Z,80.93
2023-04-10T04:18:48.342Z,81.14
2023-04-10T04:19:48.338Z,81.14
2023-04-10T04:20:48.304Z,81.21
2023-04-10T04:21:48.305Z,81.41
2023-04-10T04:22:48.284Z,81.72
2023-04-10T04:23:48.270Z,82.17
2023-04-10T04:24:48.316Z,82.03
2023-04-10T04:25:48.248Z,81.93
2023-04-10T04:26:48.248Z,82.45
2023-04-10T04:27:48.231Z,82.75
2023-04-10T04:28:48.250Z,82.55
2023-04-10T04:29:48.214Z,82.55
2023-04-10T04:30:48.197Z,82.86
2023-04-10T04:31:48.307Z,82.34
2023-04-10T04:32:48.251Z,82.61
2023-04-10T04:33:48.174Z,82.55
2023-04-10T04:34:48.174Z,82.45
2023-04-10T04:35:48.197Z,82.14
2023-04-10T04:36:48.133Z,82.34
2023-04-10T04:37:48.132Z,82.86
2023-04-10T04:38:48.114Z,83.06
2023-04-10T04:39:48.121Z,83.17
2023-04-10T04:40:48.104Z,82.86
2023-04-10T04:41:48.089Z,83.06
2023-04-10T04:42:48.074Z,83.27
2023-04-10T04:43:48.096Z,83.17
2023-04-10T04:44:48.051Z,83.37
2023-04-10T04:45:48.050Z,83.27
2023-04-10T04:46:48.027Z,83.17
2023-04-10T04:47:48.061Z,82.96
2023-04-10T04:48:48.029Z,83.27
2023-04-10T04:49:48.009Z,82.96
2023-04-10T04:50:47.983Z,83.27
2023-04-10T04:51:47.988Z,83.17
2023-04-10T04:52:47.970Z,83.03
2023-04-10T04:53:48.001Z,83.13
2023-04-10T04:54:47.943Z,83.75
2023-04-10T04:55:47.933Z,83.33
2023-04-10T04:56:47.950Z,82.96
2023-04-10T04:57:47.910Z,83.03
2023-04-10T04:58:47.916Z,83.37
2023-04-10T04:59:47.890Z,83.23
2023-04-10T05:00:47.879Z,83.33
2023-04-10T05:01:47.954Z,84.20
2023-04-10T05:02:47.996Z,84.30
2023-04-10T05:03:47.970Z,84.88
2023-04-10T05:04:47.835Z,84.67
2023-04-10T05:05:47.843Z,84.78
2023-04-10T05:06:47.818Z,84.53
2023-04-10T05:07:47.821Z,84.64
2023-04-10T05:08:47.806Z,84.53
2023-04-10T05:09:47.786Z,83.64
2023-04-10T05:10:47.768Z,84.92
2023-04-10T05:11:47.806Z,85.30
2023-04-10T05:12:47.751Z,85.81
2023-04-10T05:13:47.755Z,86.12
2023-04-10T05:14:47.730Z,85.87
2023-04-10T05:15:47.790Z,86.22
2023-04-10T05:16:47.712Z,86.74
2023-04-10T05:17:47.781Z,86.74
2023-04-10T05:18:47.706Z,87.32
2023-04-10T05:19:47.688Z,87.63
2023-04-10T05:20:47.661Z,87.59
2023-04-10T05:21:47.651Z,86.45
2023-04-10T05:22:47.644Z,86.16
2023-04-10T05:23:47.644Z,86.06
2023-04-10T05:24:47.641Z,85.82
2023-04-10T05:25:47.607Z,85.10
2023-04-10T05:26:47.596Z,84.54
2023-04-10T05:27:47.584Z,83.99
2023-04-10T05:28:47.598Z,82.96
2023-04-10T05:29:47.561Z,82.65
2023-04-10T05:30:47.587Z,82.41
2023-04-10T05:31:47.546Z,81.86
2023-04-10T05:32:47.569Z,80.93
2023-04-10T05:33:47.557Z,80.69
2023-04-10T05:34:47.509Z,80.28
2023-04-10T05:35:47.533Z,79.56
2023-04-10T05:36:47.486Z,79.11
2023-04-10T05:37:47.475Z,78.77
2023-04-10T05:38:47.488Z,78.97
2023-04-10T05:39:47.455Z,78.56
2023-04-10T05:40:47.450Z,77.20
2023-04-10T05:41:47.441Z,77.16
2023-04-10T05:42:47.434Z,76.92
2023-04-10T05:43:47.430Z,75.76
2023-04-10T05:44:47.402Z,75.35
2023-04-10T05:45:47.391Z,75.24
2023-04-10T05:46:47.409Z,75.21
2023-04-10T05:47:47.430Z,74.60
2023-04-10T05:48:47.436Z,74.19
2023-04-10T05:49:47.348Z,74.08
2023-04-10T05:50:47.380Z,74.22
2023-04-10T05:51:47.343Z,74.49
2023-04-10T05:52:47.317Z,74.29
2023-04-10T05:53:47.323Z,74.26
2023-04-10T05:54:47.303Z,73.74
2023-04-10T05:55:47.282Z,73.50
2023-04-10T05:56:47.274Z,72.75
2023-04-10T05:57:47.262Z,72.41
2023-04-10T05:58:47.334Z,71.67
2023-04-10T05:59:47.238Z,71.26
2023-04-10T06:00:47.231Z,70.61
2023-04-10T06:01:47.271Z,70.27
2023-04-10T06:02:47.361Z,69.86
2023-04-10T06:03:47.442Z,70.00
2023-04-10T06:04:47.240Z,70.20
2023-04-10T06:05:47.173Z,70.51
2023-04-10T06:06:47.164Z,70.61
2023-04-10T06:07:47.199Z,70.57
2023-04-10T06:08:47.159Z,70.34
2023-04-10T06:09:47.134Z,69.59
2023-04-10T06:10:47.130Z,69.15
2023-04-10T06:11:47.115Z,68.13
2023-04-10T06:12:47.097Z,68.21
2023-04-10T06:13:47.103Z,67.49
2023-04-10T06:14:47.077Z,68.18
2023-04-10T06:15:47.092Z,67.02
2023-04-10T06:16:47.058Z,67.02
2023-04-10T06:17:47.081Z,66.61
2023-04-10T06:18:47.051Z,67.02
2023-04-10T06:19:47.019Z,65.16
2023-04-10T06:20:47.021Z,65.60
2023-04-10T06:21:47.013Z,66.72
2023-04-10T06:22:46.986Z,66.49
2023-04-10T06:23:47.011Z,66.18
2023-04-10T06:24:47.046Z,65.03
2023-04-10T06:25:46.960Z,64.93
2023-04-10T06:26:46.945Z,64.49
2023-04-10T06:27:46.931Z,64.09
2023-04-10T06:28:46.945Z,64.06
2023-04-10T06:29:46.914Z,64.53
2023-04-10T06:30:46.906Z,63.52
2023-04-10T06:31:47.002Z,62.54
2023-04-10T06:32:46.960Z,62.98
2023-04-10T06:33:46.872Z,64.03
2023-04-10T06:34:46.877Z,63.62
2023-04-10T06:35:46.865Z,64.73
2023-04-10T06:36:46.841Z,64.53
2023-04-10T06:37:46.844Z,63.92
2023-04-10T06:38:46.817Z,63.92
2023-04-10T06:39:46.826Z,63.92
2023-04-10T06:40:46.805Z,63.62
2023-04-10T06:41:46.782Z,63.62
2023-04-10T06:42:46.786Z,64.46
2023-04-10T06:43:46.767Z,64.84
2023-04-10T06:44:46.753Z,64.56
2023-04-10T06:45:46.745Z,63.95
2023-04-10T06:46:46.804Z,63.72
2023-04-10T06:47:46.760Z,63.69
2023-04-10T06:48:46.743Z,63.18
2023-04-10T06:49:46.709Z,62.65
2023-04-10T06:50:46.695Z,62.95
2023-04-10T06:51:46.676Z,62.14
2023-04-10T06:52:46.701Z,62.34
2023-04-10T06:53:46.658Z,62.41
2023-04-10T06:54:46.651Z,62.29
2023-04-10T06:55:46.652Z,61.71
2023-04-10T06:56:46.632Z,61.37
2023-04-10T06:57:46.631Z,61.27
2023-04-10T06:58:46.606Z,59.92
2023-04-10T06:59:46.593Z,60.03
2023-04-10T07:00:46.621Z,59.39
2023-04-10T07:01:46.582Z,58.96
2023-04-10T07:02:46.621Z,58.96
2023-04-10T07:03:46.580Z,58.83
2023-04-10T07:04:46.741Z,58.91
2023-04-10T07:05:46.526Z,56.65
2023-04-10T07:06:46.516Z,56.70
2023-04-10T07:07:46.513Z,56.20
2023-04-10T07:08:46.518Z,55.77
2023-04-10T07:09:46.503Z,55.87
2023-04-10T07:10:46.480Z,56.07
2023-04-10T07:11:46.490Z,55.64
2023-04-10T07:12:46.472Z,54.91
2023-04-10T07:13:46.443Z,54.79
2023-04-10T07:14:46.431Z,55.11
2023-04-10T07:15:46.421Z,56.12
2023-04-10T07:16:46.626Z,55.41
2023-04-10T07:17:46.480Z,55.62
2023-04-10T07:18:47.506Z,55.51
2023-04-10T07:19:46.373Z,55.94
2023-04-10T07:20:46.367Z,55.21
2023-04-10T07:21:46.363Z,55.62
2023-04-10T07:22:46.421Z,55.41
2023-04-10T07:23:46.334Z,55.19
2023-04-10T07:24:46.332Z,54.18
2023-04-10T07:25:46.313Z,54.86
2023-04-10T07:26:46.316Z,53.83
2023-04-10T07:27:46.324Z,53.63
2023-04-10T07:28:46.276Z,53.83
2023-04-10T07:29:46.262Z,53.42
2023-04-10T07:30:46.304Z,53.92
2023-04-10T07:31:46.297Z,53.42
2023-04-10T07:32:46.363Z,53.30
2023-04-10T07:33:46.249Z,53.27
2023-04-10T07:34:46.209Z,52.84
2023-04-10T07:35:46.274Z,53.14
2023-04-10T07:36:46.248Z,52.12
2023-04-10T07:37:46.196Z,52.77
2023-04-10T07:38:46.174Z,53.47
2023-04-10T07:39:46.159Z,52.55
2023-04-10T07:40:46.154Z,53.14
2023-04-10T07:41:46.133Z,53.07
2023-04-10T07:42:46.146Z,53.80
2023-04-10T07:43:46.136Z,53.57
2023-04-10T07:44:46.120Z,52.94
2023-04-10T07:45:46.114Z,52.92
2023-04-10T07:46:46.085Z,52.51
2023-04-10T07:47:46.168Z,51.79
2023-04-10T07:48:46.084Z,51.79
2023-04-10T07:49:46.058Z,51.04
2023-04-10T07:50:46.064Z,51.04
2023-04-10T07:51:46.029Z,50.21
2023-04-10T07:52:46.090Z,50.24
2023-04-10T07:53:46.020Z,50.21
2023-04-10T07:54:45.998Z,50.09
2023-04-10T07:55:45.985Z,49.58
2023-04-10T07:56:45.992Z,49.46
2023-04-10T07:57:46.017Z,48.76
2023-04-10T07:58:45.955Z,49.26
2023-04-10T07:59:45.958Z,48.84
2023-04-10T08:00:45.934Z,47.42
2023-04-10T08:01:45.988Z,47.61
2023-04-10T08:02:46.073Z,47.92
2023-04-10T08:03:46.095Z,47.94
2023-04-10T08:04:46.007Z,47.52
2023-04-10T08:05:45.880Z,47.81
2023-04-10T08:06:45.867Z,47.09
2023-04-10T08:07:45.863Z,46.99
2023-04-10T08:08:45.867Z,47.31
2023-04-10T08:09:45.842Z,47.30
2023-04-10T08:10:45.842Z,47.27
2023-04-10T08:11:45.819Z,47.49
2023-04-10T08:12:45.809Z,47.19
2023-04-10T08:13:45.803Z,46.95
2023-04-10T08:14:45.790Z,47.39
2023-04-10T08:15:45.794Z,47.52
2023-04-10T08:16:45.871Z,47.52
2023-04-10T08:17:45.813Z,47.39
2023-04-10T08:18:45.747Z,47.47
2023-04-10T08:19:45.741Z,46.97
2023-04-10T08:20:45.719Z,46.97
2023-04-10T08:21:45.713Z,47.47
2023-04-10T08:22:52.776Z,47.27
2023-04-10T08:23:45.698Z,46.35
2023-04-10T08:24:45.682Z,45.55
2023-04-10T08:25:45.672Z,46.13
2023-04-10T08:26:45.686Z,45.63
2023-04-10T08:27:45.686Z,45.53
2023-04-10T08:28:45.642Z,45.55
2023-04-10T08:29:45.628Z,45.73
2023-04-10T08:30:45.641Z,45.33
2023-04-10T08:31:45.649Z,45.31
2023-04-10T08:32:45.667Z,45.10
2023-04-10T08:33:45.635Z,45.18
2023-04-10T08:34:45.611Z,44.49
2023-04-10T08:35:45.626Z,45.18
2023-04-10T08:36:45.611Z,44.89
2023-04-10T08:37:49.653Z,43.57
2023-04-10T08:38:46.597Z,44.79
2023-04-10T08:39:45.537Z,44.05
2023-04-10T08:40:45.517Z,44.76
2023-04-10T08:41:45.502Z,43.73
2023-04-10T08:42:45.500Z,43.33
2023-04-10T08:43:45.668Z,43.43
2023-04-10T08:44:45.480Z,44.29
2023-04-10T08:45:45.488Z,44.05
2023-04-10T08:46:45.483Z,44.79
2023-04-10T08:47:45.514Z,44.37
2023-04-10T08:48:45.486Z,44.89
2023-04-10T08:49:45.428Z,44.46
2023-04-10T08:50:45.410Z,43.67
2023-04-10T08:51:47.224Z,44.79
2023-04-10T08:52:45.404Z,45.31
2023-04-10T08:53:45.402Z,45.31
2023-04-10T08:54:45.373Z,45.21
2023-04-10T08:55:45.373Z,44.38
2023-04-10T08:56:45.375Z,44.89
2023-04-10T08:57:50.788Z,45.73
2023-04-10T08:58:46.381Z,44.93
2023-04-10T08:59:45.319Z,45.73
2023-04-10T09:00:45.310Z,45.51
2023-04-10T09:01:45.389Z,45.31
2023-04-10T09:02:45.510Z,45.40
2023-04-10T09:03:45.395Z,44.79
2023-04-10T09:04:45.390Z,44.49
2023-04-10T09:05:45.282Z,44.59
2023-04-10T09:06:45.250Z,44.89
2023-04-10T09:07:45.236Z,44.37
2023-04-10T09:08:45.269Z,43.89
2023-04-10T09:09:45.214Z,44.61
2023-04-10T09:10:45.207Z,44.73
2023-04-10T09:11:45.192Z,45.15
2023-04-10T09:12:45.191Z,45.75
2023-04-10T09:13:45.239Z,44.55
2023-04-10T09:14:45.169Z,45.05
2023-04-10T09:15:45.168Z,45.57
2023-04-10T09:16:45.145Z,44.97
2023-04-10T09:17:45.164Z,44.85
2023-04-10T09:18:45.145Z,43.73
2023-04-10T09:19:45.127Z,43.11
2023-04-10T09:20:45.100Z,43.71
2023-04-10T09:21:45.088Z,42.49
2023-04-10T09:22:45.099Z,43.29
2023-04-10T09:23:45.077Z,42.87
2023-04-10T09:24:45.057Z,42.15
2023-04-10T09:25:45.063Z,41.97
2023-04-10T09:26:45.037Z,42.67
2023-04-10T09:27:45.086Z,41.47
2023-04-10T09:28:45.015Z,41.47
2023-04-10T09:29:45.011Z,41.97
2023-04-10T09:30:44.994Z,41.08
2023-04-10T09:31:45.070Z,38.67
2023-04-10T09:32:45.030Z,39.66
2023-04-10T09:33:44.967Z,41.17
2023-04-10T09:34:44.968Z,42.91
2023-04-10T09:35:44.961Z,42.69
2023-04-10T09:36:44.945Z,43.09
2023-04-10T09:37:45.001Z,42.97
2023-04-10T09:38:44.913Z,43.37
2023-04-10T09:39:44.919Z,42.69
2023-04-10T09:40:44.902Z,43.09
2023-04-10T09:41:44.881Z,42.77
2023-04-10T09:42:44.895Z,42.85
2023-04-10T09:43:44.866Z,41.85
2023-04-10T09:44:44.850Z,42.05
2023-04-10T09:45:44.837Z,42.15
2023-04-10T09:46:44.852Z,41.44
2023-04-10T09:47:44.852Z,41.93
2023-04-10T09:48:44.809Z,42.11
2023-04-10T09:49:44.809Z,41.83
2023-04-10T09:50:44.852Z,42.43
2023-04-10T09:51:44.840Z,41.25
2023-04-10T09:52:44.770Z,41.69
2023-04-10T09:53:44.782Z,44.45
2023-04-10T09:54:44.813Z,44.78
2023-04-10T09:55:44.820Z,45.17
2023-04-10T09:56:44.750Z,44.35
2023-04-10T09:57:44.718Z,43.19
2023-04-10T09:58:44.712Z,43.47
2023-04-10T09:59:44.703Z,42.65
2023-04-10T10:00:44.691Z,41.85
2023-04-10T10:01:44.790Z,41.33
2023-04-10T10:02:45.070Z,41.53
2023-04-10T10:03:44.698Z,42.03
2023-04-10T10:04:44.715Z,41.14
2023-04-10T10:05:44.639Z,41.96
2023-04-10T10:06:44.647Z,41.67
2023-04-10T10:07:44.645Z,41.67
2023-04-10T10:08:44.605Z,41.25
2023-04-10T10:09:44.610Z,41.16
2023-04-10T10:10:44.584Z,41.06
2023-04-10T10:11:44.609Z,41.38
2023-04-10T10:12:44.573Z,41.97
2023-04-10T10:13:44.594Z,41.16
2023-04-10T10:14:44.542Z,41.25
2023-04-10T10:15:44.540Z,40.74
2023-04-10T10:16:44.728Z,41.53
2023-04-10T10:17:44.549Z,41.16
2023-04-10T10:18:44.505Z,41.55
2023-04-10T10:19:44.544Z,41.96
2023-04-10T10:20:44.490Z,41.55
2023-04-10T10:21:44.478Z,41.46
2023-04-10T10:22:44.502Z,42.07
2023-04-10T10:23:44.480Z,43.05
2023-04-10T10:24:44.451Z,42.63
2023-04-10T10:25:44.516Z,43.15
2023-04-10T10:26:44.426Z,43.03
2023-04-10T10:27:44.421Z,42.43
2023-04-10T10:28:44.430Z,43.59
2023-04-10T10:29:44.398Z,43.61
2023-04-10T10:30:44.394Z,44.87
2023-04-10T10:31:44.397Z,45.84
2023-04-10T10:32:44.391Z,47.15
2023-04-10T10:33:44.398Z,49.43
2023-04-10T10:34:44.341Z,51.59
2023-04-10T10:35:44.336Z,51.93
2023-04-10T10:36:44.383Z,51.56
2023-04-10T10:37:44.323Z,53.17
2023-04-10T10:38:44.318Z,53.30
2023-04-10T10:39:44.315Z,53.90
2023-04-10T10:40:44.288Z,54.81
2023-04-10T10:41:44.271Z,53.80
2023-04-10T10:42:44.282Z,54.00
2023-04-10T10:43:44.278Z,54.21
2023-04-10T10:44:44.248Z,54.10
2023-04-10T10:45:44.254Z,53.70
2023-04-10T10:46:44.223Z,54.03
2023-04-10T10:47:44.228Z,55.04
2023-04-10T10:48:44.249Z,54.86
2023-04-10T10:49:44.200Z,55.26
2023-04-10T10:50:44.277Z,55.99
2023-04-10T10:51:44.169Z,56.20
2023-04-10T10:52:44.152Z,58.04
2023-04-10T10:53:44.155Z,56.63
2023-04-10T10:54:57.126Z,57.97
2023-04-10T10:55:45.142Z,58.47
2023-04-10T10:56:44.112Z,59.08
2023-04-10T10:57:44.132Z,58.34
2023-04-10T10:58:44.090Z,57.97
2023-04-10T10:59:44.088Z,57.43
2023-04-10T11:00:44.095Z,57.34
2023-04-10T11:01:44.219Z,57.34
2023-04-10T11:02:44.218Z,55.32
2023-04-10T11:03:44.161Z,55.24
2023-04-10T11:04:44.023Z,56.35
2023-04-10T11:05:44.051Z,56.85
2023-04-10T11:06:44.793Z,56.25
2023-04-10T11:07:44.016Z,56.96
2023-04-10T11:08:43.992Z,56.76
2023-04-10T11:09:43.980Z,56.56
2023-04-10T11:10:44.009Z,56.56
2023-04-10T11:11:44.004Z,56.25
2023-04-10T11:12:43.939Z,56.15
2023-04-10T11:13:43.953Z,56.02
2023-04-10T11:14:43.942Z,56.23
2023-04-10T11:15:43.913Z,56.02
2023-04-10T11:16:44.107Z,56.23
2023-04-10T11:17:43.942Z,55.19
2023-04-10T11:18:43.910Z,54.71
2023-04-10T11:19:43.870Z,54.99
2023-04-10T11:20:43.854Z,54.99
2023-04-10T11:21:43.845Z,55.29
2023-04-10T11:22:43.830Z,55.82
2023-04-10T11:23:43.861Z,56.32
2023-04-10T11:24:43.820Z,56.73
2023-04-10T11:25:43.801Z,56.83
2023-04-10T11:26:43.788Z,56.56
2023-04-10T11:27:43.801Z,57.69
2023-04-10T11:28:43.812Z,58.43
2023-04-10T11:29:43.765Z,57.62
2023-04-10T11:30:43.741Z,57.82
2023-04-10T11:31:43.762Z,58.73
2023-04-10T11:32:43.749Z,58.80
2023-04-10T11:33:43.721Z,58.09
2023-04-10T11:34:43.695Z,59.11
2023-04-10T11:35:43.744Z,58.83
2023-04-10T11:36:43.696Z,58.53
2023-04-10T11:37:43.664Z,58.83
2023-04-10T11:38:43.675Z,59.74
2023-04-10T11:39:43.645Z,58.73
2023-04-10T11:40:43.630Z,58.83
2023-04-10T11:41:43.622Z,58.73
2023-04-10T11:42:43.620Z,58.73
2023-04-10T11:43:43.637Z,58.36
2023-04-10T11:44:43.614Z,58.76
2023-04-10T11:45:43.621Z,59.70
2023-04-10T11:46:43.577Z,58.78
2023-04-10T11:47:43.624Z,59.09
2023-04-10T11:48:43.545Z,58.86
2023-04-10T11:49:43.537Z,58.36
2023-04-10T11:50:43.524Z,57.54
2023-04-10T11:51:43.510Z,56.73
2023-04-10T11:52:43.566Z,56.63
2023-04-10T11:53:43.496Z,56.33
2023-04-10T11:54:43.494Z,56.73
2023-04-10T11:55:43.482Z,58.76
2023-04-10T11:56:43.468Z,58.05
2023-04-10T11:57:43.500Z,57.11
2023-04-10T11:58:43.432Z,56.33
2023-04-10T11:59:43.524Z,55.11
2023-04-10T12:00:43.418Z,54.71
2023-04-10T12:01:43.782Z,56.33
2023-04-10T12:02:43.541Z,57.65
2023-04-10T12:03:43.551Z,57.04
2023-04-10T12:04:43.442Z,57.75
2023-04-10T12:05:43.389Z,57.04
2023-04-10T12:06:43.374Z,58.05
2023-04-10T12:07:43.342Z,57.65
2023-04-10T12:08:43.340Z,56.63
2023-04-10T12:09:43.320Z,57.24
2023-04-10T12:10:43.318Z,58.05
2023-04-10T12:11:43.325Z,58.02
2023-04-10T12:12:43.285Z,57.42
2023-04-10T12:13:43.271Z,57.62
2023-04-10T12:14:43.333Z,57.89
2023-04-10T12:15:43.297Z,56.61
2023-04-10T12:16:43.252Z,56.10
2023-04-10T12:17:43.274Z,56.20
2023-04-10T12:18:43.221Z,58.02
2023-04-10T12:19:43.204Z,58.53
2023-04-10T12:20:43.196Z,58.83
2023-04-10T12:21:43.211Z,58.63
2023-04-10T12:22:43.174Z,56.20
2023-04-10T12:23:43.163Z,57.42
2023-04-10T12:24:43.150Z,56.48
2023-04-10T12:25:43.143Z,54.86
2023-04-10T12:26:43.142Z,54.16
2023-04-10T12:27:43.119Z,54.36
2023-04-10T12:28:43.106Z,53.52
2023-04-10T12:29:43.101Z,52.21
2023-04-10T12:30:43.250Z,51.50
2023-04-10T12:31:43.226Z,51.43
2023-04-10T12:32:43.101Z,51.63
2023-04-10T12:33:43.059Z,52.23
2023-04-10T12:34:43.044Z,52.14
2023-04-10T12:35:43.094Z,51.55
2023-04-10T12:36:43.060Z,50.84
2023-04-10T12:37:43.018Z,48.32
2023-04-10T12:38:43.011Z,48.93
2023-04-10T12:39:43.016Z,50.04
2023-04-10T12:40:42.986Z,52.06
2023-04-10T12:41:43.015Z,52.46
2023-04-10T12:42:42.973Z,51.86
2023-04-10T12:43:42.957Z,51.93
2023-04-10T12:44:42.938Z,50.72
2023-04-10T12:45:42.932Z,50.92
2023-04-10T12:46:43.060Z,50.62
2023-04-10T12:47:42.987Z,51.83
2023-04-10T12:48:42.902Z,51.23
2023-04-10T12:49:42.887Z,50.32
2023-04-10T12:50:42.871Z,51.55
2023-04-10T12:51:42.883Z,51.78
2023-04-10T12:52:42.857Z,51.88